Wednesday, October 18, 2017, 5:01 PM CDT
Back to Local

KDHT, Dalhart Municipal Airport

Location: Dalhart, TX, United States Lat: 36.017
Local Time: 5:01 PM CDT (22:01 GMT) Lon: -102.55
Time Zone: US/Central Elev: 3989 ft

Show me the last for .
Show Decoded

2017-10-18 15:53 METAR KDHT 182053Z AUTO 10007KT 10SM CLR 30/M04 A3003 RMK AO2 SLP125 T03001039
                 56017 =
2017-10-18 14:53 METAR KDHT 181953Z AUTO 00000KT 10SM CLR 29/M02 A3004 RMK AO2 SLP129 T02891022 =
2017-10-18 13:53 METAR KDHT 181853Z AUTO 17004KT 10SM CLR 28/01 A3006 RMK AO2 SLP134 T02830006 =
2017-10-18 12:53 METAR KDHT 181753Z AUTO VRB03KT 10SM CLR 27/02 A3009 RMK AO2 SLP144 T02670017
                 10272 20039 51001 =
2017-10-18 11:53 METAR KDHT 181653Z AUTO 00000KT 10SM CLR 24/03 A3009 RMK AO2 SLP148 T02390033 =
2017-10-18 10:53 METAR KDHT 181553Z AUTO 00000KT 10SM CLR 19/04 A3009 RMK AO2 SLP151 T01940039 =
2017-10-18 09:53 METAR KDHT 181453Z AUTO 31003KT 10SM CLR 13/05 A3008 RMK AO2 SLP161 T01330050
                 53010 =
2017-10-18 08:53 METAR KDHT 181353Z AUTO 30005KT 10SM CLR 08/03 A3007 RMK AO2 SLP160 T00780028 =
2017-10-18 07:53 METAR KDHT 181253Z AUTO 26005KT 10SM CLR 04/02 A3005 RMK AO2 SLP156 T00390017 =
2017-10-18 06:53 METAR KDHT 181153Z AUTO 28006KT 10SM CLR 05/02 A3005 RMK AO2 SLP148 T00500022
                 10106 20044 55002 =
2017-10-18 05:53 METAR KDHT 181053Z AUTO 30003KT 10SM CLR 06/03 A3005 RMK AO2 SLP136 T00610033 =
2017-10-18 04:53 METAR KDHT 180953Z AUTO 29003KT 10SM CLR 07/04 A3005 RMK AO2 SLP134 T00670039 =
2017-10-18 03:53 METAR KDHT 180853Z AUTO 26007KT 10SM CLR 07/04 A3006 RMK AO2 SLP138 T00670039
                 58006 =
2017-10-18 02:53 METAR KDHT 180753Z AUTO 23006KT 10SM CLR 08/04 A3007 RMK AO2 SLP142 T00830044 =
2017-10-18 01:53 METAR KDHT 180653Z AUTO 00000KT 10SM CLR 10/03 A3008 RMK AO2 SLP141 T01000033 =
2017-10-18 00:53 METAR KDHT 180553Z AUTO 18003KT 10SM CLR 11/03 A3008 RMK AO2 SLP144 T01060033
                 10200 20100 402830022 58005 =
2017-10-17 23:53 METAR KDHT 180453Z AUTO 18004KT 10SM CLR 11/03 A3010 RMK AO2 SLP154 T01060033 =
2017-10-17 22:53 METAR KDHT 180353Z AUTO 24007KT 10SM CLR 12/03 A3010 RMK AO2 SLP158 T01220033 =
2017-10-17 21:53 METAR KDHT 180253Z AUTO 21007KT 10SM CLR 11/03 A3010 RMK AO2 SLP167 T01110033
                 51009 =
2017-10-17 20:53 METAR KDHT 180153Z AUTO 18008KT 10SM CLR 13/03 A3009 RMK AO2 SLP169 T01280033 =
2017-10-17 19:53 METAR KDHT 180053Z AUTO 20006KT 10SM CLR 16/04 A3008 RMK AO2 SLP163 T01610044 =
2017-10-17 18:53 METAR KDHT 172353Z AUTO 18007KT 10SM CLR 21/03 A3007 RMK AO2 SLP157 T02060028
                 10283 20206 56008 =
2017-10-17 17:53 METAR KDHT 172253Z AUTO 20009KT 10SM CLR 26/M02 A3007 RMK AO2 SLP149 T02561017 =

Support USWX by starting your Amazon purchase here.